sensor_id;sensor_type;location;lat;lon;timestamp;temperature;humidity
21616;DHT22;10970;48.714;9.584;2023-04-03T00:01:28;3.70;99.90
21616;DHT22;10970;48.714;9.584;2023-04-03T00:03:55;3.70;99.90
21616;DHT22;10970;48.714;9.584;2023-04-03T00:06:21;3.70;99.90
21616;DHT22;10970;48.714;9.584;2023-04-03T00:08:47;3.60;99.90
21616;DHT22;10970;48.714;9.584;2023-04-03T00:11:13;3.60;99.90
21616;DHT22;10970;48.714;9.584;2023-04-03T00:13:39;3.60;99.90
21616;DHT22;10970;48.714;9.584;2023-04-03T00:16:06;3.60;99.90
21616;DHT22;10970;48.714;9.584;2023-04-03T00:18:32;3.60;99.90
21616;DHT22;10970;48.714;9.584;2023-04-03T00:20:58;3.60;99.90
21616;DHT22;10970;48.714;9.584;2023-04-03T00:23:23;3.60;99.90
21616;DHT22;10970;48.714;9.584;2023-04-03T00:25:50;3.60;99.90
21616;DHT22;10970;48.714;9.584;2023-04-03T00:28:15;3.60;99.90
21616;DHT22;10970;48.714;9.584;2023-04-03T00:30:41;3.60;99.90
21616;DHT22;10970;48.714;9.584;2023-04-03T00:33:07;3.60;99.90
21616;DHT22;10970;48.714;9.584;2023-04-03T00:35:34;3.60;99.90
21616;DHT22;10970;48.714;9.584;2023-04-03T00:38:00;3.60;99.90
21616;DHT22;10970;48.714;9.584;2023-04-03T00:40:27;3.60;99.90
21616;DHT22;10970;48.714;9.584;2023-04-03T00:42:58;3.60;99.90
21616;DHT22;10970;48.714;9.584;2023-04-03T00:45:30;3.50;99.90
21616;DHT22;10970;48.714;9.584;2023-04-03T00:47:57;3.50;99.90
21616;DHT22;10970;48.714;9.584;2023-04-03T00:50:26;3.50;99.90
21616;DHT22;10970;48.714;9.584;2023-04-03T00:52:52;3.40;99.90
21616;DHT22;10970;48.714;9.584;2023-04-03T00:55:18;3.40;99.90
21616;DHT22;10970;48.714;9.584;2023-04-03T00:57:45;3.40;99.90
21616;DHT22;10970;48.714;9.584;2023-04-03T01:00:15;3.40;99.90
21616;DHT22;10970;48.714;9.584;2023-04-03T01:02:42;3.30;99.90
21616;DHT22;10970;48.714;9.584;2023-04-03T01:05:08;3.30;99.90
21616;DHT22;10970;48.714;9.584;2023-04-03T01:07:34;3.30;99.90
21616;DHT22;10970;48.714;9.584;2023-04-03T01:10:06;3.20;99.90
21616;DHT22;10970;48.714;9.584;2023-04-03T01:12:37;3.20;99.90
21616;DHT22;10970;48.714;9.584;2023-04-03T01:15:24;3.10;99.90
21616;DHT22;10970;48.714;9.584;2023-04-03T01:17:55;3.00;99.90
21616;DHT22;10970;48.714;9.584;2023-04-03T01:25:54;3.00;99.90
21616;DHT22;10970;48.714;9.584;2023-04-03T01:28:27;3.00;99.90
21616;DHT22;10970;48.714;9.584;2023-04-03T01:33:43;3.00;99.90
21616;DHT22;10970;48.714;9.584;2023-04-03T01:36:10;3.00;99.90
21616;DHT22;10970;48.714;9.584;2023-04-03T01:38:38;3.00;99.90
21616;DHT22;10970;48.714;9.584;2023-04-03T01:41:04;3.10;99.90
21616;DHT22;10970;48.714;9.584;2023-04-03T01:43:29;3.10;99.90
21616;DHT22;10970;48.714;9.584;2023-04-03T01:45:55;3.10;99.90
21616;DHT22;10970;48.714;9.584;2023-04-03T01:48:21;3.10;99.90
21616;DHT22;10970;48.714;9.584;2023-04-03T01:50:46;3.20;99.90
21616;DHT22;10970;48.714;9.584;2023-04-03T01:53:12;3.20;99.90
21616;DHT22;10970;48.714;9.584;2023-04-03T01:55:38;3.20;99.90
21616;DHT22;10970;48.714;9.584;2023-04-03T01:58:04;3.20;99.90
21616;DHT22;10970;48.714;9.584;2023-04-03T02:00:29;3.20;99.90
21616;DHT22;10970;48.714;9.584;2023-04-03T02:02:56;3.20;99.90
21616;DHT22;10970;48.714;9.584;2023-04-03T02:05:22;3.20;99.90
21616;DHT22;10970;48.714;9.584;2023-04-03T02:07:47;3.20;99.90
21616;DHT22;10970;48.714;9.584;2023-04-03T02:10:13;3.20;99.90
21616;DHT22;10970;48.714;9.584;2023-04-03T02:12:39;3.20;99.90
21616;DHT22;10970;48.714;9.584;2023-04-03T02:15:05;3.20;99.90
21616;DHT22;10970;48.714;9.584;2023-04-03T02:17:31;3.30;99.90
21616;DHT22;10970;48.714;9.584;2023-04-03T02:19:56;3.30;99.90
21616;DHT22;10970;48.714;9.584;2023-04-03T02:22:22;3.30;99.90
21616;DHT22;10970;48.714;9.584;2023-04-03T02:24:48;3.30;99.90
21616;DHT22;10970;48.714;9.584;2023-04-03T02:27:13;3.40;99.90
21616;DHT22;10970;48.714;9.584;2023-04-03T02:29:40;3.40;99.90
21616;DHT22;10970;48.714;9.584;2023-04-03T02:32:05;3.40;99.90
21616;DHT22;10970;48.714;9.584;2023-04-03T02:34:31;3.40;99.90
21616;DHT22;10970;48.714;9.584;2023-04-03T02:36:56;3.40;99.90
21616;DHT22;10970;48.714;9.584;2023-04-03T02:39:22;3.40;99.90
21616;DHT22;10970;48.714;9.584;2023-04-03T02:41:48;3.40;99.90
21616;DHT22;10970;48.714;9.584;2023-04-03T02:44:13;3.40;99.90
21616;DHT22;10970;48.714;9.584;2023-04-03T02:46:39;3.40;99.90
21616;DHT22;10970;48.714;9.584;2023-04-03T02:49:05;3.40;99.90
21616;DHT22;10970;48.714;9.584;2023-04-03T02:51:31;3.40;99.90
21616;DHT22;10970;48.714;9.584;2023-04-03T02:53:56;3.40;99.90
21616;DHT22;10970;48.714;9.584;2023-04-03T02:56:22;3.40;99.90
21616;DHT22;10970;48.714;9.584;2023-04-03T02:58:48;3.50;99.90
21616;DHT22;10970;48.714;9.584;2023-04-03T03:01:14;3.40;99.90
21616;DHT22;10970;48.714;9.584;2023-04-03T03:03:39;3.40;99.90
21616;DHT22;10970;48.714;9.584;2023-04-03T03:06:08;3.50;99.90
21616;DHT22;10970;48.714;9.584;2023-04-03T03:08:35;3.50;99.90
21616;DHT22;10970;48.714;9.584;2023-04-03T03:11:01;3.50;99.90
21616;DHT22;10970;48.714;9.584;2023-04-03T03:13:27;3.50;99.90
21616;DHT22;10970;48.714;9.584;2023-04-03T03:15:52;3.60;99.90
21616;DHT22;10970;48.714;9.584;2023-04-03T03:18:18;3.60;99.90
21616;DHT22;10970;48.714;9.584;2023-04-03T03:20:44;3.50;99.90
21616;DHT22;10970;48.714;9.584;2023-04-03T03:23:10;3.50;99.90
21616;DHT22;10970;48.714;9.584;2023-04-03T03:25:39;3.50;99.90
21616;DHT22;10970;48.714;9.584;2023-04-03T03:28:06;3.50;99.90
21616;DHT22;10970;48.714;9.584;2023-04-03T03:30:31;3.50;99.90
21616;DHT22;10970;48.714;9.584;2023-04-03T03:32:57;3.50;99.90
21616;DHT22;10970;48.714;9.584;2023-04-03T03:35:23;3.50;99.90
21616;DHT22;10970;48.714;9.584;2023-04-03T03:37:48;3.50;99.90
21616;DHT22;10970;48.714;9.584;2023-04-03T03:40:14;3.50;99.90
21616;DHT22;10970;48.714;9.584;2023-04-03T03:42:40;3.50;99.90
21616;DHT22;10970;48.714;9.584;2023-04-03T03:45:07;3.50;99.90
21616;DHT22;10970;48.714;9.584;2023-04-03T03:47:32;3.50;99.90
21616;DHT22;10970;48.714;9.584;2023-04-03T03:49:58;3.50;99.90
21616;DHT22;10970;48.714;9.584;2023-04-03T03:52:24;3.50;99.90
21616;DHT22;10970;48.714;9.584;2023-04-03T03:54:50;3.50;99.90
21616;DHT22;10970;48.714;9.584;2023-04-03T03:57:15;3.50;99.90
21616;DHT22;10970;48.714;9.584;2023-04-03T03:59:41;3.50;99.90
21616;DHT22;10970;48.714;9.584;2023-04-03T04:02:08;3.50;99.90
21616;DHT22;10970;48.714;9.584;2023-04-03T04:04:34;3.50;99.90
21616;DHT22;10970;48.714;9.584;2023-04-03T04:06:59;3.40;99.90
21616;DHT22;10970;48.714;9.584;2023-04-03T04:09:26;3.50;99.90
21616;DHT22;10970;48.714;9.584;2023-04-03T04:11:52;3.40;99.90
21616;DHT22;10970;48.714;9.584;2023-04-03T04:14:18;3.50;99.90
21616;DHT22;10970;48.714;9.584;2023-04-03T04:16:46;3.50;99.90
21616;DHT22;10970;48.714;9.584;2023-04-03T04:19:11;3.50;99.90
21616;DHT22;10970;48.714;9.584;2023-04-03T04:21:38;3.50;99.90
21616;DHT22;10970;48.714;9.584;2023-04-03T04:24:04;3.50;99.90
21616;DHT22;10970;48.714;9.584;2023-04-03T04:26:30;3.50;99.90
21616;DHT22;10970;48.714;9.584;2023-04-03T04:28:56;3.50;99.90
21616;DHT22;10970;48.714;9.584;2023-04-03T04:31:21;3.50;99.90
21616;DHT22;10970;48.714;9.584;2023-04-03T04:33:47;3.50;99.90
21616;DHT22;10970;48.714;9.584;2023-04-03T04:36:13;3.50;99.90
21616;DHT22;10970;48.714;9.584;2023-04-03T04:38:40;3.50;99.90
21616;DHT22;10970;48.714;9.584;2023-04-03T04:41:06;3.50;99.90
21616;DHT22;10970;48.714;9.584;2023-04-03T04:43:32;3.50;99.90
21616;DHT22;10970;48.714;9.584;2023-04-03T04:46:06;3.50;99.90
21616;DHT22;10970;48.714;9.584;2023-04-03T04:48:33;3.50;99.90
21616;DHT22;10970;48.714;9.584;2023-04-03T04:51:00;3.50;99.90
21616;DHT22;10970;48.714;9.584;2023-04-03T04:53:26;3.50;99.90
21616;DHT22;10970;48.714;9.584;2023-04-03T04:55:52;3.50;99.90
21616;DHT22;10970;48.714;9.584;2023-04-03T04:58:18;3.40;99.90
21616;DHT22;10970;48.714;9.584;2023-04-03T05:00:44;3.50;99.90
21616;DHT22;10970;48.714;9.584;2023-04-03T05:03:10;3.50;99.90
21616;DHT22;10970;48.714;9.584;2023-04-03T05:05:36;3.50;99.90
21616;DHT22;10970;48.714;9.584;2023-04-03T05:08:02;3.40;99.90
21616;DHT22;10970;48.714;9.584;2023-04-03T05:10:28;3.40;99.90
21616;DHT22;10970;48.714;9.584;2023-04-03T05:12:54;3.30;99.90
21616;DHT22;10970;48.714;9.584;2023-04-03T05:15:20;3.20;99.90
21616;DHT22;10970;48.714;9.584;2023-04-03T05:17:45;3.10;99.90
21616;DHT22;10970;48.714;9.584;2023-04-03T05:20:11;3.10;99.90
21616;DHT22;10970;48.714;9.584;2023-04-03T05:22:37;3.00;99.90
21616;DHT22;10970;48.714;9.584;2023-04-03T05:25:03;2.90;99.90
21616;DHT22;10970;48.714;9.584;2023-04-03T05:27:29;2.90;99.90
21616;DHT22;10970;48.714;9.584;2023-04-03T05:29:55;2.90;99.90
21616;DHT22;10970;48.714;9.584;2023-04-03T05:32:22;3.00;99.90
21616;DHT22;10970;48.714;9.584;2023-04-03T05:34:48;2.90;99.90
21616;DHT22;10970;48.714;9.584;2023-04-03T05:37:13;2.90;99.90
21616;DHT22;10970;48.714;9.584;2023-04-03T05:39:39;2.90;99.90
21616;DHT22;10970;48.714;9.584;2023-04-03T05:42:06;3.00;99.90
21616;DHT22;10970;48.714;9.584;2023-04-03T05:44:32;3.00;99.90
21616;DHT22;10970;48.714;9.584;2023-04-03T05:46:58;3.10;99.90
21616;DHT22;10970;48.714;9.584;2023-04-03T05:49:24;3.20;99.90
21616;DHT22;10970;48.714;9.584;2023-04-03T05:51:50;3.20;99.90
21616;DHT22;10970;48.714;9.584;2023-04-03T05:54:23;3.20;99.90
21616;DHT22;10970;48.714;9.584;2023-04-03T05:56:50;3.20;99.90
21616;DHT22;10970;48.714;9.584;2023-04-03T05:59:17;3.20;99.90
21616;DHT22;10970;48.714;9.584;2023-04-03T06:01:42;3.20;99.90
21616;DHT22;10970;48.714;9.584;2023-04-03T06:04:08;3.30;99.90
21616;DHT22;10970;48.714;9.584;2023-04-03T06:06:49;3.30;99.90
21616;DHT22;10970;48.714;9.584;2023-04-03T06:09:17;3.30;99.90
21616;DHT22;10970;48.714;9.584;2023-04-03T06:11:43;3.30;99.90
21616;DHT22;10970;48.714;9.584;2023-04-03T06:14:09;3.30;99.90
21616;DHT22;10970;48.714;9.584;2023-04-03T06:16:35;3.30;99.90
21616;DHT22;10970;48.714;9.584;2023-04-03T06:19:01;3.40;99.90
21616;DHT22;10970;48.714;9.584;2023-04-03T06:21:27;3.50;99.90
21616;DHT22;10970;48.714;9.584;2023-04-03T06:23:53;3.50;99.90
21616;DHT22;10970;48.714;9.584;2023-04-03T06:26:18;3.50;99.90
21616;DHT22;10970;48.714;9.584;2023-04-03T06:28:44;3.50;99.90
21616;DHT22;10970;48.714;9.584;2023-04-03T06:31:10;3.50;99.90
21616;DHT22;10970;48.714;9.584;2023-04-03T06:33:36;3.50;99.90
21616;DHT22;10970;48.714;9.584;2023-04-03T06:36:04;3.60;99.90
21616;DHT22;10970;48.714;9.584;2023-04-03T06:38:31;3.70;99.90
21616;DHT22;10970;48.714;9.584;2023-04-03T06:40:56;3.70;99.90
21616;DHT22;10970;48.714;9.584;2023-04-03T06:43:22;3.70;99.90
21616;DHT22;10970;48.714;9.584;2023-04-03T06:45:48;3.80;99.90
21616;DHT22;10970;48.714;9.584;2023-04-03T06:48:14;3.80;99.90
21616;DHT22;10970;48.714;9.584;2023-04-03T06:50:39;3.80;99.90
21616;DHT22;10970;48.714;9.584;2023-04-03T06:53:05;3.90;99.90
21616;DHT22;10970;48.714;9.584;2023-04-03T06:55:32;4.00;99.90
21616;DHT22;10970;48.714;9.584;2023-04-03T06:57:58;4.00;99.90
21616;DHT22;10970;48.714;9.584;2023-04-03T07:00:24;4.10;99.90
21616;DHT22;10970;48.714;9.584;2023-04-03T07:02:50;4.20;99.90
21616;DHT22;10970;48.714;9.584;2023-04-03T07:05:17;4.30;99.90
21616;DHT22;10970;48.714;9.584;2023-04-03T07:07:42;4.40;99.90
21616;DHT22;10970;48.714;9.584;2023-04-03T07:10:09;4.50;99.90
21616;DHT22;10970;48.714;9.584;2023-04-03T07:12:35;4.40;99.90
21616;DHT22;10970;48.714;9.584;2023-04-03T07:15:01;4.40;99.90
21616;DHT22;10970;48.714;9.584;2023-04-03T07:17:28;4.40;99.90
21616;DHT22;10970;48.714;9.584;2023-04-03T07:19:54;4.60;99.90
21616;DHT22;10970;48.714;9.584;2023-04-03T07:22:19;4.60;99.90
21616;DHT22;10970;48.714;9.584;2023-04-03T07:24:45;4.70;99.90
21616;DHT22;10970;48.714;9.584;2023-04-03T07:27:11;4.50;99.90
21616;DHT22;10970;48.714;9.584;2023-04-03T07:29:38;4.50;99.90
21616;DHT22;10970;48.714;9.584;2023-04-03T07:32:04;4.90;99.90
21616;DHT22;10970;48.714;9.584;2023-04-03T07:34:31;5.40;99.90
21616;DHT22;10970;48.714;9.584;2023-04-03T07:36:58;5.50;99.90
21616;DHT22;10970;48.714;9.584;2023-04-03T07:39:24;5.50;99.90
21616;DHT22;10970;48.714;9.584;2023-04-03T07:41:51;5.50;99.90
21616;DHT22;10970;48.714;9.584;2023-04-03T07:44:17;5.30;99.90
21616;DHT22;10970;48.714;9.584;2023-04-03T07:46:43;5.60;99.90
21616;DHT22;10970;48.714;9.584;2023-04-03T07:49:09;6.10;99.90
21616;DHT22;10970;48.714;9.584;2023-04-03T07:51:35;5.70;99.90
21616;DHT22;10970;48.714;9.584;2023-04-03T07:54:01;5.50;99.90
21616;DHT22;10970;48.714;9.584;2023-04-03T07:56:26;5.50;99.90
21616;DHT22;10970;48.714;9.584;2023-04-03T07:58:53;5.90;99.90
21616;DHT22;10970;48.714;9.584;2023-04-03T08:01:19;6.50;99.90
21616;DHT22;10970;48.714;9.584;2023-04-03T08:03:44;6.80;99.90
21616;DHT22;10970;48.714;9.584;2023-04-03T08:06:10;6.90;99.90
21616;DHT22;10970;48.714;9.584;2023-04-03T08:08:36;6.60;99.90
21616;DHT22;10970;48.714;9.584;2023-04-03T08:11:02;6.40;99.90
21616;DHT22;10970;48.714;9.584;2023-04-03T08:13:30;6.50;99.90
21616;DHT22;10970;48.714;9.584;2023-04-03T08:15:56;6.60;99.90
21616;DHT22;10970;48.714;9.584;2023-04-03T08:18:23;6.50;99.90
21616;DHT22;10970;48.714;9.584;2023-04-03T08:20:51;6.70;99.90
21616;DHT22;10970;48.714;9.584;2023-04-03T08:23:17;6.90;99.90
21616;DHT22;10970;48.714;9.584;2023-04-03T08:25:43;6.80;99.90
21616;DHT22;10970;48.714;9.584;2023-04-03T08:28:10;6.90;99.90
21616;DHT22;10970;48.714;9.584;2023-04-03T08:30:39;6.90;99.90
21616;DHT22;10970;48.714;9.584;2023-04-03T08:33:05;7.10;99.90
21616;DHT22;10970;48.714;9.584;2023-04-03T08:35:31;6.80;99.90
21616;DHT22;10970;48.714;9.584;2023-04-03T08:37:57;6.70;99.90
21616;DHT22;10970;48.714;9.584;2023-04-03T08:40:23;6.80;99.90
21616;DHT22;10970;48.714;9.584;2023-04-03T08:45:46;6.00;99.90
21616;DHT22;10970;48.714;9.584;2023-04-03T08:48:27;6.30;99.90
21616;DHT22;10970;48.714;9.584;2023-04-03T08:50:56;6.10;99.90
21616;DHT22;10970;48.714;9.584;2023-04-03T08:53:26;6.00;99.90
21616;DHT22;10970;48.714;9.584;2023-04-03T08:55:54;6.00;99.90
21616;DHT22;10970;48.714;9.584;2023-04-03T08:58:21;6.10;99.90
21616;DHT22;10970;48.714;9.584;2023-04-03T09:03:23;6.10;99.90
21616;DHT22;10970;48.714;9.584;2023-04-03T09:06:11;6.10;99.90
21616;DHT22;10970;48.714;9.584;2023-04-03T09:14:18;6.00;99.90
21616;DHT22;10970;48.714;9.584;2023-04-03T09:17:03;6.10;99.90
21616;DHT22;10970;48.714;9.584;2023-04-03T09:19:41;6.30;99.90
21616;DHT22;10970;48.714;9.584;2023-04-03T09:22:28;6.60;99.90
21616;DHT22;10970;48.714;9.584;2023-04-03T09:25:17;6.60;99.90
21616;DHT22;10970;48.714;9.584;2023-04-03T09:27:44;6.60;99.90
21616;DHT22;10970;48.714;9.584;2023-04-03T09:30:21;6.50;99.90
21616;DHT22;10970;48.714;9.584;2023-04-03T09:32:50;6.70;99.90
21616;DHT22;10970;48.714;9.584;2023-04-03T09:35:27;6.80;99.90
21616;DHT22;10970;48.714;9.584;2023-04-03T09:38:01;6.80;99.90
21616;DHT22;10970;48.714;9.584;2023-04-03T09:40:40;6.50;99.90
21616;DHT22;10970;48.714;9.584;2023-04-03T09:45:47;6.50;99.90
21616;DHT22;10970;48.714;9.584;2023-04-03T09:51:01;6.70;99.90
21616;DHT22;10970;48.714;9.584;2023-04-03T09:53:35;6.60;99.90
21616;DHT22;10970;48.714;9.584;2023-04-03T09:56:25;6.60;99.90
21616;DHT22;10970;48.714;9.584;2023-04-03T10:01:32;6.60;99.90
21616;DHT22;10970;48.714;9.584;2023-04-03T10:04:12;6.40;99.90
21616;DHT22;10970;48.714;9.584;2023-04-03T10:09:31;6.20;99.90
21616;DHT22;10970;48.714;9.584;2023-04-03T10:14:24;6.00;99.90
21616;DHT22;10970;48.714;9.584;2023-04-03T10:20:02;5.90;99.90
21616;DHT22;10970;48.714;9.584;2023-04-03T10:28:03;6.40;99.90
21616;DHT22;10970;48.714;9.584;2023-04-03T10:30:36;6.50;99.90
21616;DHT22;10970;48.714;9.584;2023-04-03T10:46:33;6.70;99.90
21616;DHT22;10970;48.714;9.584;2023-04-03T10:57:13;6.50;99.90
21616;DHT22;10970;48.714;9.584;2023-04-03T10:59:45;6.30;99.90
21616;DHT22;10970;48.714;9.584;2023-04-03T11:02:25;6.20;99.90
21616;DHT22;10970;48.714;9.584;2023-04-03T11:04:59;6.20;99.90
21616;DHT22;10970;48.714;9.584;2023-04-03T11:07:29;6.10;99.90
21616;DHT22;10970;48.714;9.584;2023-04-03T11:10:05;6.10;99.90
21616;DHT22;10970;48.714;9.584;2023-04-03T11:12:48;6.10;99.90
21616;DHT22;10970;48.714;9.584;2023-04-03T11:15:19;6.00;99.90
21616;DHT22;10970;48.714;9.584;2023-04-03T11:18:08;5.90;99.90
21616;DHT22;10970;48.714;9.584;2023-04-03T11:20:35;5.90;99.90
21616;DHT22;10970;48.714;9.584;2023-04-03T11:25:38;6.10;99.90
21616;DHT22;10970;48.714;9.584;2023-04-03T11:28:12;6.30;99.90
21616;DHT22;10970;48.714;9.584;2023-04-03T11:35:57;6.90;99.90
21616;DHT22;10970;48.714;9.584;2023-04-03T11:38:28;7.30;99.90
21616;DHT22;10970;48.714;9.584;2023-04-03T11:40:57;7.70;99.90
21616;DHT22;10970;48.714;9.584;2023-04-03T11:43:31;7.80;99.90
21616;DHT22;10970;48.714;9.584;2023-04-03T11:46:02;7.60;99.90
21616;DHT22;10970;48.714;9.584;2023-04-03T11:50:55;7.20;99.90
21616;DHT22;10970;48.714;9.584;2023-04-03T11:53:38;7.20;99.90
21616;DHT22;10970;48.714;9.584;2023-04-03T12:01:59;7.40;99.90
21616;DHT22;10970;48.714;9.584;2023-04-03T12:04:26;7.20;99.90
21616;DHT22;10970;48.714;9.584;2023-04-03T12:07:02;7.00;99.90
21616;DHT22;10970;48.714;9.584;2023-04-03T12:12:30;7.30;99.90
21616;DHT22;10970;48.714;9.584;2023-04-03T12:15:17;7.40;99.90
21616;DHT22;10970;48.714;9.584;2023-04-03T12:17:44;7.40;99.90
21616;DHT22;10970;48.714;9.584;2023-04-03T12:23:32;7.50;99.90
21616;DHT22;10970;48.714;9.584;2023-04-03T12:28:43;8.00;99.90
21616;DHT22;10970;48.714;9.584;2023-04-03T12:31:10;7.70;99.90
21616;DHT22;10970;48.714;9.584;2023-04-03T12:34:01;7.70;99.90
21616;DHT22;10970;48.714;9.584;2023-04-03T12:37:23;7.30;99.90
21616;DHT22;10970;48.714;9.584;2023-04-03T12:45:21;7.60;99.90
21616;DHT22;10970;48.714;9.584;2023-04-03T12:47:53;7.50;99.90
21616;DHT22;10970;48.714;9.584;2023-04-03T12:50:30;7.50;99.90
21616;DHT22;10970;48.714;9.584;2023-04-03T12:53:11;7.40;99.90
21616;DHT22;10970;48.714;9.584;2023-04-03T12:55:37;7.10;99.90
21616;DHT22;10970;48.714;9.584;2023-04-03T12:58:20;7.10;99.90
21616;DHT22;10970;48.714;9.584;2023-04-03T13:00:46;7.00;99.90
21616;DHT22;10970;48.714;9.584;2023-04-03T13:03:24;6.80;99.90
21616;DHT22;10970;48.714;9.584;2023-04-03T13:05:54;6.60;99.90
21616;DHT22;10970;48.714;9.584;2023-04-03T13:08:20;6.80;99.90
21616;DHT22;10970;48.714;9.584;2023-04-03T13:11:08;6.90;99.90
21616;DHT22;10970;48.714;9.584;2023-04-03T13:13:35;7.10;99.90
21616;DHT22;10970;48.714;9.584;2023-04-03T13:16:08;7.10;99.90
21616;DHT22;10970;48.714;9.584;2023-04-03T13:18:36;7.30;99.90
21616;DHT22;10970;48.714;9.584;2023-04-03T13:21:15;7.60;99.90
21616;DHT22;10970;48.714;9.584;2023-04-03T13:23:45;7.60;99.90
21616;DHT22;10970;48.714;9.584;2023-04-03T13:26:12;7.70;99.90
21616;DHT22;10970;48.714;9.584;2023-04-03T13:28:41;7.80;99.90
21616;DHT22;10970;48.714;9.584;2023-04-03T13:34:17;7.70;99.90
21616;DHT22;10970;48.714;9.584;2023-04-03T13:36:39;7.40;99.90
21616;DHT22;10970;48.714;9.584;2023-04-03T13:41:43;7.80;99.90
21616;DHT22;10970;48.714;9.584;2023-04-03T13:46:49;7.60;99.90
21616;DHT22;10970;48.714;9.584;2023-04-03T13:49:40;7.40;99.90
21616;DHT22;10970;48.714;9.584;2023-04-03T13:54:54;7.00;99.90
21616;DHT22;10970;48.714;9.584;2023-04-03T13:57:20;7.00;99.90
21616;DHT22;10970;48.714;9.584;2023-04-03T13:59:46;7.50;99.90
21616;DHT22;10970;48.714;9.584;2023-04-03T14:02:29;7.70;99.90
21616;DHT22;10970;48.714;9.584;2023-04-03T14:04:57;7.90;99.90
21616;DHT22;10970;48.714;9.584;2023-04-03T14:07:26;7.90;99.90
21616;DHT22;10970;48.714;9.584;2023-04-03T14:09:52;7.50;99.90
21616;DHT22;10970;48.714;9.584;2023-04-03T14:14:52;7.10;99.90
21616;DHT22;10970;48.714;9.584;2023-04-03T14:17:20;7.10;99.90
21616;DHT22;10970;48.714;9.584;2023-04-03T14:19:47;7.10;99.90
21616;DHT22;10970;48.714;9.584;2023-04-03T14:22:22;7.30;99.90
21616;DHT22;10970;48.714;9.584;2023-04-03T14:24:49;7.40;99.90
21616;DHT22;10970;48.714;9.584;2023-04-03T14:27:24;7.40;99.90
21616;DHT22;10970;48.714;9.584;2023-04-03T14:29:51;7.50;99.90
21616;DHT22;10970;48.714;9.584;2023-04-03T14:32:22;7.50;99.90
21616;DHT22;10970;48.714;9.584;2023-04-03T14:34:49;7.50;99.90
21616;DHT22;10970;48.714;9.584;2023-04-03T14:37:22;7.50;99.90
21616;DHT22;10970;48.714;9.584;2023-04-03T14:39:49;7.40;99.90
21616;DHT22;10970;48.714;9.584;2023-04-03T14:42:22;7.40;99.90
21616;DHT22;10970;48.714;9.584;2023-04-03T14:44:48;7.40;99.90
21616;DHT22;10970;48.714;9.584;2023-04-03T14:47:18;7.50;99.90
21616;DHT22;10970;48.714;9.584;2023-04-03T14:49:44;7.60;99.90
21616;DHT22;10970;48.714;9.584;2023-04-03T14:52:22;7.60;99.90
21616;DHT22;10970;48.714;9.584;2023-04-03T14:54:49;7.70;99.90
21616;DHT22;10970;48.714;9.584;2023-04-03T14:57:15;7.90;99.90
21616;DHT22;10970;48.714;9.584;2023-04-03T14:59:45;7.80;99.90
21616;DHT22;10970;48.714;9.584;2023-04-03T15:02:32;7.40;99.90
21616;DHT22;10970;48.714;9.584;2023-04-03T15:04:59;7.30;99.90
21616;DHT22;10970;48.714;9.584;2023-04-03T15:07:28;7.30;99.90
21616;DHT22;10970;48.714;9.584;2023-04-03T15:09:54;7.20;99.90
21616;DHT22;10970;48.714;9.584;2023-04-03T15:12:22;7.40;99.90
21616;DHT22;10970;48.714;9.584;2023-04-03T15:14:48;7.50;99.90
21616;DHT22;10970;48.714;9.584;2023-04-03T15:17:16;7.60;99.90
21616;DHT22;10970;48.714;9.584;2023-04-03T15:19:43;7.60;99.90
21616;DHT22;10970;48.714;9.584;2023-04-03T15:22:18;7.40;99.90
21616;DHT22;10970;48.714;9.584;2023-04-03T15:24:44;7.30;99.90
21616;DHT22;10970;48.714;9.584;2023-04-03T15:27:12;7.40;99.90
21616;DHT22;10970;48.714;9.584;2023-04-03T15:29:39;7.80;99.90
21616;DHT22;10970;48.714;9.584;2023-04-03T15:32:05;7.90;99.90
21616;DHT22;10970;48.714;9.584;2023-04-03T15:34:31;7.70;99.90
21616;DHT22;10970;48.714;9.584;2023-04-03T15:36:57;7.80;99.90
21616;DHT22;10970;48.714;9.584;2023-04-03T15:39:24;7.90;99.90
21616;DHT22;10970;48.714;9.584;2023-04-03T15:41:51;7.90;99.90
21616;DHT22;10970;48.714;9.584;2023-04-03T15:44:17;7.80;99.90
21616;DHT22;10970;48.714;9.584;2023-04-03T15:46:45;7.60;99.90
21616;DHT22;10970;48.714;9.584;2023-04-03T15:49:12;7.20;99.90
21616;DHT22;10970;48.714;9.584;2023-04-03T15:51:37;7.10;99.90
21616;DHT22;10970;48.714;9.584;2023-04-03T15:54:03;6.90;99.90
21616;DHT22;10970;48.714;9.584;2023-04-03T15:56:29;6.60;99.90
21616;DHT22;10970;48.714;9.584;2023-04-03T15:58:55;6.50;99.90
21616;DHT22;10970;48.714;9.584;2023-04-03T16:01:21;6.50;99.90
21616;DHT22;10970;48.714;9.584;2023-04-03T16:03:47;6.60;99.90
21616;DHT22;10970;48.714;9.584;2023-04-03T16:06:16;6.80;99.90
21616;DHT22;10970;48.714;9.584;2023-04-03T16:08:44;7.10;99.90
21616;DHT22;10970;48.714;9.584;2023-04-03T16:11:10;7.40;99.90
21616;DHT22;10970;48.714;9.584;2023-04-03T16:13:35;7.40;99.90
21616;DHT22;10970;48.714;9.584;2023-04-03T16:16:01;7.40;99.90
21616;DHT22;10970;48.714;9.584;2023-04-03T16:18:28;7.30;99.90
21616;DHT22;10970;48.714;9.584;2023-04-03T16:20:54;7.20;99.90
21616;DHT22;10970;48.714;9.584;2023-04-03T16:23:20;7.10;99.90
21616;DHT22;10970;48.714;9.584;2023-04-03T16:25:46;7.10;99.90
21616;DHT22;10970;48.714;9.584;2023-04-03T16:28:15;6.90;99.90
21616;DHT22;10970;48.714;9.584;2023-04-03T16:30:41;6.70;99.90
21616;DHT22;10970;48.714;9.584;2023-04-03T16:33:09;6.60;99.90
21616;DHT22;10970;48.714;9.584;2023-04-03T16:35:35;6.40;99.90
21616;DHT22;10970;48.714;9.584;2023-04-03T16:38:01;6.40;99.90
21616;DHT22;10970;48.714;9.584;2023-04-03T16:40:26;6.40;99.90
21616;DHT22;10970;48.714;9.584;2023-04-03T16:42:52;6.40;99.90
21616;DHT22;10970;48.714;9.584;2023-04-03T16:45:18;6.50;99.90
21616;DHT22;10970;48.714;9.584;2023-04-03T16:47:44;6.40;99.90
21616;DHT22;10970;48.714;9.584;2023-04-03T16:50:10;6.50;99.90
21616;DHT22;10970;48.714;9.584;2023-04-03T16:52:36;6.60;99.90
21616;DHT22;10970;48.714;9.584;2023-04-03T16:55:02;6.60;99.90
21616;DHT22;10970;48.714;9.584;2023-04-03T16:57:28;6.60;99.90
21616;DHT22;10970;48.714;9.584;2023-04-03T16:59:54;6.60;99.90
21616;DHT22;10970;48.714;9.584;2023-04-03T17:02:21;6.60;99.90
21616;DHT22;10970;48.714;9.584;2023-04-03T17:04:50;6.50;99.90
21616;DHT22;10970;48.714;9.584;2023-04-03T17:07:17;6.40;99.90
21616;DHT22;10970;48.714;9.584;2023-04-03T17:09:42;6.40;99.90
21616;DHT22;10970;48.714;9.584;2023-04-03T17:12:08;6.30;99.90
21616;DHT22;10970;48.714;9.584;2023-04-03T17:14:34;6.30;99.90
21616;DHT22;10970;48.714;9.584;2023-04-03T17:16:59;6.40;99.90
21616;DHT22;10970;48.714;9.584;2023-04-03T17:19:25;6.30;99.90
21616;DHT22;10970;48.714;9.584;2023-04-03T17:21:52;6.30;99.90
21616;DHT22;10970;48.714;9.584;2023-04-03T17:24:18;6.20;99.90
21616;DHT22;10970;48.714;9.584;2023-04-03T17:26:43;6.10;99.90
21616;DHT22;10970;48.714;9.584;2023-04-03T17:29:09;6.10;99.90
21616;DHT22;10970;48.714;9.584;2023-04-03T17:31:35;5.90;99.90
21616;DHT22;10970;48.714;9.584;2023-04-03T17:34:01;5.90;99.90
21616;DHT22;10970;48.714;9.584;2023-04-03T17:36:32;5.80;99.90
21616;DHT22;10970;48.714;9.584;2023-04-03T17:38:58;5.80;99.90